Time;durP1;ratioP1;P1;durP2;ratioP2;P2;SDS_P1;SDS_P2;PMS_P1;PMS_P2;Temp;Humidity;BMP_temperature;BMP_pressure;BME280_temperature;BME280_humidity;BME280_pressure;Samples;Min_cycle;Max_cycle;Signal;HPM_P1;HPM_P2
2024/04/07 00:00:22;;;;;;;;;;;19.70;67.00;;;19.86;37.98;99683.31;5083355;28;19924;-80
2024/04/07 00:02:50;;;;;;;;;;;19.70;67.90;;;19.86;36.93;99677.91;5083757;28;19932;-80
2024/04/07 00:05:18;;;;;;;;;;;19.60;66.40;;;19.86;37.55;99683.31;5083786;28;19924;-80
2024/04/07 00:07:47;;;;;;;;;;;19.60;66.80;;;19.86;37.18;99696.84;5083315;28;19932;-80
2024/04/07 00:10:16;;;;;;;;;;;19.60;66.60;;;19.84;37.71;99699.06;5084654;28;19947;-80
2024/04/07 00:12:44;;;;;;;;;;;19.60;67.30;;;19.83;37.49;99697.47;5087619;28;19924;-80
2024/04/07 00:15:12;;;;;;;;;;;19.60;66.70;;;19.78;37.94;99684.78;5088098;28;19955;-80
2024/04/07 00:17:39;;;;;;;;;;;19.60;67.80;;;19.76;37.81;99681.59;5065899;28;19974;-80
2024/04/07 00:20:08;;;;;;;;;;;19.50;67.60;;;19.76;37.60;99688.88;5087426;28;19925;-80
2024/04/07 00:22:34;;;;;;;;;;;19.60;67.00;;;19.75;37.31;99687.28;5087343;28;19935;-80
2024/04/07 00:25:05;;;;;;;;;;;19.60;66.80;;;19.77;36.74;99693.22;5088222;28;19932;-80
2024/04/07 00:27:32;;;;;;;;;;;19.50;65.80;;;19.79;37.71;99691.00;5087486;28;19931;-80
2024/04/07 00:30:00;;;;;;;;;;;19.60;67.00;;;19.78;37.81;99703.75;5087721;28;19966;-80
2024/04/07 00:32:27;;;;;;;;;;;19.60;67.20;;;19.79;37.86;99704.53;5088319;28;19924;-80
2024/04/07 00:34:56;;;;;;;;;;;19.60;67.10;;;19.79;37.43;99704.53;5086984;28;19928;-80
2024/04/07 00:37:22;;;;;;;;;;;19.60;67.00;;;19.78;37.64;99702.94;5087083;28;19979;-80
2024/04/07 00:39:50;;;;;;;;;;;19.60;67.20;;;19.78;37.09;99709.16;5087964;28;19931;-80
2024/04/07 00:42:17;;;;;;;;;;;19.60;66.20;;;19.80;37.28;99714.25;5087669;28;19924;-80
2024/04/07 00:44:46;;;;;;;;;;;19.60;66.20;;;19.78;37.35;99709.16;5086293;28;19929;-80
2024/04/07 00:47:13;;;;;;;;;;;19.60;66.90;;;19.76;37.38;99708.66;5085938;28;19925;-80
2024/04/07 00:49:42;;;;;;;;;;;19.60;66.70;;;19.80;37.20;99711.56;5069186;28;19924;-80
2024/04/07 00:52:12;;;;;;;;;;;19.60;66.60;;;19.77;37.98;99706.75;5087691;28;19925;-80
2024/04/07 00:54:41;;;;;;;;;;;19.60;67.20;;;19.72;38.58;99713.03;5082558;28;19924;-80
2024/04/07 00:57:14;;;;;;;;;;;19.60;68.10;;;19.70;38.54;99720.59;5085736;28;19974;-80
2024/04/07 00:59:43;;;;;;;;;;;19.50;68.10;;;19.69;38.84;99737.13;5087049;28;20410;-80
2024/04/07 01:02:11;;;;;;;;;;;19.50;68.60;;;19.67;39.07;99739.34;5085813;28;19931;-80
2024/04/07 01:04:38;;;;;;;;;;;19.50;68.80;;;19.66;38.62;99749.34;5085764;28;19948;-80
2024/04/07 01:07:05;;;;;;;;;;;19.50;68.90;;;19.66;38.51;99752.03;5086247;28;19936;-80
2024/04/07 01:09:36;;;;;;;;;;;19.50;68.50;;;19.67;38.86;99745.56;5087211;28;19984;-80
2024/04/07 01:12:10;;;;;;;;;;;19.50;68.50;;;19.65;39.15;99752.34;5052758;28;19931;-80
2024/04/07 01:14:38;;;;;;;;;;;19.50;69.10;;;19.63;39.19;99749.13;5085695;28;19983;-80
2024/04/07 01:17:06;;;;;;;;;;;19.50;69.80;;;19.59;39.04;99748.06;5087378;28;20421;-80
2024/04/07 01:19:35;;;;;;;;;;;19.40;69.50;;;19.60;38.66;99763.22;5087395;28;19925;-80
2024/04/07 01:22:06;;;;;;;;;;;19.40;68.80;;;19.61;39.11;99756.72;5085842;28;19924;-80
2024/04/07 01:24:34;;;;;;;;;;;19.40;69.50;;;19.59;39.11;99772.41;5086705;28;19932;-80
2024/04/07 01:27:01;;;;;;;;;;;19.40;69.70;;;19.58;39.90;99779.72;5086945;28;19931;-80
2024/04/07 01:29:29;;;;;;;;;;;19.40;70.20;;;19.55;39.09;99781.09;5068191;28;19924;-80
2024/04/07 01:31:59;;;;;;;;;;;19.40;69.70;;;19.54;39.57;99779.47;5036061;28;19931;-80
2024/04/07 01:34:29;;;;;;;;;;;19.40;70.10;;;19.53;39.63;99782.47;5085738;28;19932;-80
2024/04/07 01:36:57;;;;;;;;;;;19.40;70.10;;;19.52;39.71;99792.50;5086315;28;19951;-80
2024/04/07 01:39:24;;;;;;;;;;;19.40;70.50;;;19.52;39.66;99797.06;5086327;28;20452;-80
2024/04/07 01:41:51;;;;;;;;;;;19.40;70.20;;;19.53;39.75;99796.00;5085489;28;19931;-80
2024/04/07 01:44:19;;;;;;;;;;;19.40;69.90;;;19.53;39.46;99791.41;5086408;28;19924;-80
2024/04/07 01:46:45;;;;;;;;;;;19.40;70.30;;;19.53;39.36;99801.41;5085937;28;19929;-80
2024/04/07 01:49:16;;;;;;;;;;;19.40;69.70;;;19.53;40.26;99821.16;5087368;28;19946;-80
2024/04/07 01:51:42;;;;;;;;;;;19.40;71.00;;;19.51;39.83;99820.63;5086045;28;19947;-80
2024/04/07 01:54:10;;;;;;;;;;;19.40;70.30;;;19.52;40.15;99824.94;5084481;28;19960;-80
2024/04/07 01:56:36;;;;;;;;;;;19.40;70.60;;;19.49;40.42;99827.41;5085204;28;19924;-81
2024/04/07 01:59:09;;;;;;;;;;;19.30;71.80;;;19.48;40.78;99847.44;5085969;28;19925;-80
2024/04/07 02:01:36;;;;;;;;;;;19.30;72.30;;;19.47;40.80;99838.53;5086126;28;19925;-80
2024/04/07 02:04:04;;;;;;;;;;;19.30;72.50;;;19.46;40.87;99842.31;5085302;28;19924;-80
2024/04/07 02:06:32;;;;;;;;;;;19.30;72.30;;;19.45;40.83;99846.09;5085345;28;19932;-80
2024/04/07 02:08:59;;;;;;;;;;;19.30;71.90;;;19.47;40.58;99825.00;5086567;28;19931;-80
2024/04/07 02:11:26;;;;;;;;;;;19.30;71.80;;;19.48;40.91;99825.81;5052098;28;20015;-80
2024/04/07 02:13:54;;;;;;;;;;;19.30;71.80;;;19.46;40.81;99846.91;5067769;28;19924;-80
2024/04/07 02:16:22;;;;;;;;;;;19.30;72.20;;;19.45;41.18;99886.69;5085137;28;19924;-80
2024/04/07 02:18:51;;;;;;;;;;;19.30;72.60;;;19.43;41.93;99907.00;5051698;28;19931;-80
2024/04/07 02:21:19;;;;;;;;;;;19.30;73.30;;;19.42;41.75;99921.59;5085601;28;19928;-80
2024/04/07 02:23:47;;;;;;;;;;;19.30;73.60;;;19.37;42.26;99930.53;5068481;28;19932;-81
2024/04/07 02:26:14;;;;;;;;;;;19.30;74.00;;;19.39;42.64;99912.16;5085332;28;19925;-81
2024/04/07 02:28:43;;;;;;;;;;;19.20;74.70;;;19.37;42.73;99930.53;5085268;28;19929;-81
2024/04/07 02:31:10;;;;;;;;;;;19.20;75.00;;;19.30;43.24;99932.78;5068292;28;19947;-81
2024/04/07 02:33:46;;;;;;;;;;;19.20;76.20;;;19.27;43.04;99942.25;5034028;28;19924;-81
2024/04/07 02:36:13;;;;;;;;;;;19.20;75.90;;;19.28;43.89;99959.31;5066089;28;19925;-80
2024/04/07 02:38:42;;;;;;;;;;;19.10;76.80;;;19.25;44.35;99954.44;5065518;28;19924;-81
2024/04/07 02:41:08;;;;;;;;;;;19.10;77.40;;;19.24;44.29;99979.88;5031076;28;19947;-80
2024/04/07 02:43:36;;;;;;;;;;;19.10;78.00;;;19.23;44.33;99986.38;5048944;28;20007;-80
2024/04/07 02:48:52;;;;;;;;;;;19.10;79.00;;;19.20;44.78;99976.91;5085674;28;19994;-80
2024/04/07 02:51:20;;;;;;;;;;;19.00;79.00;;;19.15;45.19;99986.97;5085188;28;19936;-81
2024/04/07 02:53:47;;;;;;;;;;;19.00;79.70;;;19.14;45.75;100017.78;5050652;28;19932;-81
2024/04/07 02:56:15;;;;;;;;;;;19.00;80.70;;;19.10;46.44;100006.72;5086006;28;19924;-81
2024/04/07 02:58:44;;;;;;;;;;;19.00;81.50;;;19.09;46.83;100021.34;5085403;28;19960;-81
2024/04/07 03:01:13;;;;;;;;;;;19.00;82.00;;;19.05;46.70;100014.84;5085427;28;19931;-81
2024/04/07 03:03:39;;;;;;;;;;;18.90;82.40;;;19.03;47.18;100022.41;5084395;28;19974;-81
2024/04/07 03:06:09;;;;;;;;;;;18.90;82.70;;;19.06;46.87;100031.88;5085295;28;20027;-80
2024/04/07 03:08:39;;;;;;;;;;;18.90;82.90;;;19.07;47.52;100045.13;5084906;28;19928;-81
2024/04/07 03:11:08;;;;;;;;;;;18.90;83.90;;;19.08;47.38;100040.50;5083669;28;19984;-81
2024/04/07 03:13:35;;;;;;;;;;;18.90;84.30;;;19.08;47.96;100051.31;5084066;28;20014;-80
2024/04/07 03:16:10;;;;;;;;;;;18.80;85.00;;;19.07;47.63;100060.53;5045218;28;19925;-81
2024/04/07 03:18:36;;;;;;;;;;;18.80;85.10;;;19.01;48.15;100065.16;5037675;28;19935;-81
2024/04/07 03:21:04;;;;;;;;;;;18.80;85.70;;;19.00;48.46;100050.81;5083707;28;20016;-80
2024/04/07 03:23:34;;;;;;;;;;;18.70;86.60;;;19.00;48.78;100067.03;5083763;28;19952;-80
2024/04/07 03:26:05;;;;;;;;;;;18.70;86.90;;;18.98;48.61;100063.81;5067729;28;19924;-80
2024/04/07 03:28:31;;;;;;;;;;;18.70;86.90;;;19.00;49.12;100082.47;5083505;28;19924;-81
2024/04/07 03:30:58;;;;;;;;;;;18.70;87.70;;;18.95;49.18;100080.59;5083443;28;19924;-81
2024/04/07 03:33:25;;;;;;;;;;;18.70;88.20;;;18.95;49.59;100082.47;5067248;28;19930;-81
2024/04/07 03:36:03;;;;;;;;;;;18.60;88.80;;;18.87;50.26;100091.16;5066211;28;19959;-81
2024/04/07 03:38:32;;;;;;;;;;;18.60;89.70;;;18.84;50.66;100073.59;5082682;28;19955;-81
2024/04/07 03:41:06;;;;;;;;;;;18.60;90.20;;;18.84;51.13;100088.97;5033401;28;20346;-81
2024/04/07 03:43:34;;;;;;;;;;;18.50;92.00;;;18.79;51.25;100103.34;5050453;28;19928;-80
2024/04/07 03:46:02;;;;;;;;;;;18.50;92.00;;;18.76;51.25;100117.41;5082030;28;19924;-81
2024/04/07 03:48:30;;;;;;;;;;;18.50;92.70;;;18.72;51.33;100133.34;5084670;28;19974;-80
2024/04/07 03:51:01;;;;;;;;;;;18.50;93.20;;;18.70;51.92;100126.59;5084768;28;19924;-81
2024/04/07 03:53:31;;;;;;;;;;;18.40;93.90;;;18.69;52.06;100138.47;5083627;28;20142;-81
2024/04/07 03:55:59;;;;;;;;;;;18.40;94.40;;;18.67;52.22;100159.53;5084517;28;19924;-81
2024/04/07 03:58:29;;;;;;;;;;;18.30;94.80;;;18.63;52.41;100178.16;5084085;28;19992;-81
2024/04/07 04:01:09;;;;;;;;;;;18.40;95.70;;;18.58;52.64;100177.34;5083547;28;19928;-81
2024/04/07 04:03:35;;;;;;;;;;;18.40;96.00;;;18.60;52.35;100164.41;5084239;28;19925;-81
2024/04/07 04:06:03;;;;;;;;;;;18.30;96.40;;;18.63;52.76;100171.94;5083801;28;19924;-81
2024/04/07 04:08:31;;;;;;;;;;;18.30;97.00;;;18.62;52.71;100173.03;5050514;28;19924;-81
2024/04/07 04:10:59;;;;;;;;;;;18.30;97.60;;;18.58;52.84;100166.56;5084151;28;19924;-81
2024/04/07 04:13:28;;;;;;;;;;;18.30;97.90;;;18.59;52.97;100147.34;5085060;28;19928;-80
2024/04/07 04:15:56;;;;;;;;;;;18.30;98.90;;;18.57;53.26;100137.94;5085605;28;19960;-81
2024/04/07 04:18:24;;;;;;;;;;;18.30;99.60;;;18.46;53.20;100151.44;5085373;28;19974;-81
2024/04/07 04:20:51;;;;;;;;;;;18.10;99.50;;;18.47;53.44;100150.34;5086521;28;19925;-80
2024/04/07 04:23:20;;;;;;;;;;;18.20;99.80;;;18.53;53.11;100173.56;5065090;28;20039;-81
2024/04/07 04:25:53;;;;;;;;;;;18.10;99.90;;;18.51;53.22;100183.84;5049008;28;19950;-81
2024/04/07 04:28:22;;;;;;;;;;;18.10;99.90;;;18.48;53.43;100183.56;5049583;28;20353;-81
2024/04/07 04:30:53;;;;;;;;;;;18.10;99.90;;;18.42;53.70;100158.47;5050233;28;19962;-81
2024/04/07 04:33:21;;;;;;;;;;;18.00;99.90;;;18.44;53.28;100129.28;5082149;28;20038;-80
2024/04/07 04:35:52;;;;;;;;;;;18.10;99.90;;;18.49;53.34;100133.88;5082543;28;19925;-81
2024/04/07 04:38:19;;;;;;;;;;;18.10;99.90;;;18.52;53.40;100141.44;5082813;28;19940;-81
2024/04/07 04:40:56;;;;;;;;;;;18.10;99.90;;;18.51;53.41;100175.75;5082996;28;19925;-81
2024/04/07 04:43:24;;;;;;;;;;;18.10;99.90;;;18.51;53.65;100213.56;5063894;28;19924;-80
2024/04/07 04:46:01;;;;;;;;;;;18.00;99.90;;;18.50;54.28;100235.44;5080181;28;19931;-80
2024/04/07 04:48:32;;;;;;;;;;;18.00;99.90;;;18.45;54.37;100230.84;5078288;28;20007;-82
2024/04/07 04:50:58;;;;;;;;;;;17.90;99.90;;;18.43;54.43;100227.59;5073782;28;20018;-81
2024/04/07 04:53:25;;;;;;;;;;;17.90;99.90;;;18.40;54.78;100228.16;5058462;28;19928;-81
2024/04/07 04:55:51;;;;;;;;;;;17.90;99.90;;;18.39;54.65;100233.78;5075439;28;20392;-81
2024/04/07 04:58:20;;;;;;;;;;;17.90;99.90;;;18.39;54.98;100223.81;5063466;28;20315;-81
2024/04/07 05:00:47;;;;;;;;;;;17.90;99.90;;;18.38;54.82;100238.38;5079918;28;19992;-81
2024/04/07 05:03:15;;;;;;;;;;;17.80;99.90;;;18.38;54.88;100249.19;5078263;28;19929;-81
2024/04/07 05:05:42;;;;;;;;;;;17.90;99.90;;;18.36;54.96;100227.06;5079866;28;20315;-81
2024/04/07 05:08:09;;;;;;;;;;;17.80;99.90;;;18.37;55.07;100223.28;5079229;28;19924;-81
2024/04/07 05:10:35;;;;;;;;;;;17.80;99.90;;;18.36;55.13;100220.84;5079611;28;19931;-82
2024/04/07 05:13:02;;;;;;;;;;;17.80;99.90;;;18.33;55.44;100216.78;5078170;28;19972;-81
2024/04/07 05:15:28;;;;;;;;;;;17.80;99.90;;;18.32;55.23;100209.75;5079513;28;19974;-81
2024/04/07 05:17:56;;;;;;;;;;;17.80;99.90;;;18.32;55.16;100206.25;5078506;28;20027;-81
2024/04/07 05:20:23;;;;;;;;;;;17.80;99.90;;;18.26;55.19;100206.25;5061671;28;19931;-81
2024/04/07 05:22:56;;;;;;;;;;;17.80;99.90;;;18.19;54.95;100199.47;5084348;28;19932;-82
2024/04/07 05:25:22;;;;;;;;;;;17.80;99.90;;;18.20;55.55;100193.00;5086500;28;19924;-81
2024/04/07 05:27:49;;;;;;;;;;;17.70;99.90;;;18.20;55.01;100193.84;5078216;28;19924;-81
2024/04/07 05:30:15;;;;;;;;;;;17.70;99.90;;;18.21;54.94;100210.84;5061531;28;19924;-81
2024/04/07 05:32:42;;;;;;;;;;;17.70;99.90;;;18.21;55.04;100214.34;5079875;28;20023;-81
2024/04/07 05:35:08;;;;;;;;;;;17.70;99.90;;;18.22;54.70;100225.97;5079104;28;20277;-81
2024/04/07 05:37:37;;;;;;;;;;;17.70;99.90;;;18.21;54.49;100227.03;5078788;28;20106;-81
2024/04/07 05:40:05;;;;;;;;;;;17.70;99.90;;;18.20;54.54;100220.00;5061639;28;19969;-81
2024/04/07 05:42:32;;;;;;;;;;;17.70;99.90;;;18.13;53.85;100205.97;5078976;28;20391;-81
2024/04/07 05:44:58;;;;;;;;;;;17.70;99.90;;;18.08;53.88;100195.97;5077669;28;19924;-81
2024/04/07 05:47:26;;;;;;;;;;;17.70;99.90;;;18.10;53.95;100187.59;5061183;28;20307;-81
2024/04/07 05:49:53;;;;;;;;;;;17.70;99.90;;;18.10;54.01;100183.00;5078635;28;20019;-81
2024/04/07 05:52:20;;;;;;;;;;;17.70;99.90;;;18.07;53.78;100188.16;5078398;28;19932;-81
2024/04/07 05:54:48;;;;;;;;;;;17.70;99.90;;;18.04;54.41;100175.97;5078925;28;19929;-81
2024/04/07 05:57:15;;;;;;;;;;;17.70;99.90;;;18.08;54.64;100173.56;5077935;28;19924;-81
2024/04/07 05:59:42;;;;;;;;;;;17.70;99.90;;;18.11;54.63;100181.94;5079586;28;19924;-81
2024/04/07 06:02:09;;;;;;;;;;;17.70;99.90;;;18.12;55.09;100174.66;5060260;28;20003;-81
2024/04/07 06:04:35;;;;;;;;;;;17.70;99.90;;;18.14;54.85;100177.88;5078052;28;20008;-81
2024/04/07 06:07:03;;;;;;;;;;;17.70;99.90;;;18.18;54.90;100176.28;5079528;28;19934;-81
2024/04/07 06:09:29;;;;;;;;;;;17.70;99.90;;;18.15;54.79;100177.59;5076383;28;19932;-81
2024/04/07 06:11:58;;;;;;;;;;;17.70;99.90;;;18.18;54.53;100195.16;5075496;28;19924;-81
2024/04/07 06:14:24;;;;;;;;;;;17.80;99.90;;;18.21;54.21;100194.66;5076568;28;19929;-80
2024/04/07 06:16:51;;;;;;;;;;;17.80;99.90;;;18.21;54.57;100198.16;5077349;28;19958;-81
2024/04/07 06:19:17;;;;;;;;;;;17.80;99.90;;;18.22;54.35;100201.66;5060602;28;19928;-81
2024/04/07 06:21:45;;;;;;;;;;;17.90;99.90;;;18.25;54.59;100201.09;5082165;28;19928;-81
2024/04/07 06:24:11;;;;;;;;;;;17.90;99.90;;;18.31;55.01;100202.75;5063528;28;19925;-81
2024/04/07 06:26:38;;;;;;;;;;;17.90;99.90;;;18.30;54.49;100203.00;5080169;28;19982;-81
2024/04/07 06:29:06;;;;;;;;;;;18.00;99.90;;;18.32;54.75;100208.97;5064470;28;20303;-81
2024/04/07 06:34:32;;;;;;;;;;;18.10;99.90;;;18.31;54.69;100218.16;5077892;28;19924;-85
2024/04/07 06:36:58;;;;;;;;;;;18.10;99.90;;;18.34;55.03;100213.00;5078451;28;19970;-82
2024/04/07 06:39:25;;;;;;;;;;;18.10;99.90;;;18.37;55.00;100219.75;5077132;28;19929;-83
2024/04/07 06:41:51;;;;;;;;;;;18.20;99.90;;;18.38;55.79;100221.38;5077033;28;19979;-83
2024/04/07 06:44:20;;;;;;;;;;;18.20;99.90;;;18.41;55.43;100224.34;5076349;28;19946;-83
2024/04/07 06:46:46;;;;;;;;;;;18.20;99.90;;;18.45;55.13;100230.84;5075737;28;20014;-83
2024/04/07 06:49:14;;;;;;;;;;;18.20;99.90;;;18.44;54.64;100229.19;5075872;28;20319;-82
2024/04/07 06:51:40;;;;;;;;;;;18.30;99.90;;;18.48;54.91;100222.19;5077625;28;19960;-82
2024/04/07 06:54:07;;;;;;;;;;;18.30;99.90;;;18.50;54.40;100235.44;5059558;28;19931;-82
2024/04/07 06:56:33;;;;;;;;;;;18.30;99.90;;;18.51;54.82;100237.06;5076033;28;19931;-82
2024/04/07 06:59:00;;;;;;;;;;;18.30;99.90;;;18.47;54.61;100239.47;5076687;28;19925;-83
2024/04/07 07:01:29;;;;;;;;;;;18.30;99.90;;;18.44;54.62;100244.59;5075845;28;20015;-83
2024/04/07 07:03:56;;;;;;;;;;;18.30;99.90;;;18.46;54.54;100235.16;5075381;28;20019;-82
2024/04/07 07:06:22;;;;;;;;;;;18.30;99.90;;;18.43;55.16;100246.50;5076707;28;19924;-82
2024/04/07 07:08:49;;;;;;;;;;;18.30;99.90;;;18.47;55.02;100244.06;5076802;28;19932;-82
2024/04/07 07:11:16;;;;;;;;;;;18.40;99.90;;;18.48;55.13;100238.41;5077025;28;19924;-84
2024/04/07 07:13:44;;;;;;;;;;;18.40;99.90;;;18.49;55.05;100250.00;5078031;28;19931;-86
2024/04/07 07:16:10;;;;;;;;;;;18.40;99.90;;;18.48;53.89;100245.69;5077493;28;19947;-84
2024/04/07 07:18:38;;;;;;;;;;;18.40;99.90;;;18.49;55.09;100253.50;5078060;28;19924;-82
2024/04/07 07:21:06;;;;;;;;;;;18.40;99.90;;;18.55;54.86;100254.34;5075630;28;20018;-82
2024/04/07 07:23:35;;;;;;;;;;;18.40;99.90;;;18.53;55.21;100254.59;5074970;28;19947;-82
2024/04/07 07:26:02;;;;;;;;;;;18.40;99.90;;;18.60;54.97;100251.66;5059161;28;19925;-82
2024/04/07 07:28:29;;;;;;;;;;;18.40;99.90;;;18.62;54.49;100248.66;5075412;28;19925;-82
2024/04/07 07:30:56;;;;;;;;;;;18.50;99.90;;;18.66;54.53;100268.66;5076081;28;20022;-82
2024/04/07 07:33:24;;;;;;;;;;;18.50;99.90;;;18.64;54.39;100278.91;5077297;28;20308;-82
2024/04/07 07:35:52;;;;;;;;;;;18.50;99.90;;;18.63;54.33;100271.91;5076078;28;19925;-82
2024/04/07 07:38:19;;;;;;;;;;;18.40;99.90;;;18.55;53.60;100281.34;5074990;28;19924;-82
2024/04/07 07:40:46;;;;;;;;;;;18.40;99.90;;;18.55;54.49;100280.56;5077786;28;20018;-82
2024/04/07 07:43:13;;;;;;;;;;;18.40;99.90;;;18.50;54.21;100279.47;5075378;28;19932;-82
2024/04/07 07:45:40;;;;;;;;;;;18.30;99.90;;;18.51;53.88;100282.97;5075959;28;19924;-82
2024/04/07 07:48:08;;;;;;;;;;;18.30;99.90;;;18.44;54.84;100285.09;5059308;28;19932;-82
2024/04/07 07:50:40;;;;;;;;;;;18.30;99.90;;;18.47;54.86;100288.09;5076429;28;19924;-82
2024/04/07 07:53:10;;;;;;;;;;;18.30;99.90;;;18.51;54.76;100286.47;5075505;28;19924;-82
2024/04/07 07:55:36;;;;;;;;;;;18.30;99.90;;;18.50;55.09;100295.66;5075578;28;19960;-82
2024/04/07 07:58:04;;;;;;;;;;;18.30;99.90;;;18.49;55.37;100298.63;5075417;28;19925;-82
2024/04/07 08:00:30;;;;;;;;;;;18.30;99.90;;;18.45;54.82;100306.47;5075471;28;20362;-82
2024/04/07 08:03:00;;;;;;;;;;;18.30;99.90;;;18.51;55.53;100301.88;5077817;28;19965;-84
2024/04/07 08:05:26;;;;;;;;;;;18.30;99.90;;;18.56;56.03;100304.59;5076026;28;19924;-82
2024/04/07 08:07:53;;;;;;;;;;;18.30;99.90;;;18.60;56.66;100300.28;5077793;28;19924;-82
2024/04/07 08:10:21;;;;;;;;;;;18.40;99.90;;;18.65;56.28;100305.69;5077248;28;19924;-82
2024/04/07 08:12:49;;;;;;;;;;;18.40;99.90;;;18.65;55.10;100316.47;5044250;28;19932;-82
2024/04/07 08:15:16;;;;;;;;;;;18.50;99.90;;;18.69;55.36;100308.66;5077166;28;19932;-82
2024/04/07 08:17:43;;;;;;;;;;;18.50;99.90;;;18.69;54.85;100314.06;5061246;28;19947;-82
2024/04/07 08:20:10;;;;;;;;;;;18.60;99.90;;;18.73;55.12;100315.16;5076834;28;20350;-82
2024/04/07 08:22:38;;;;;;;;;;;18.60;99.90;;;18.71;54.78;100318.13;5077235;28;20031;-82
2024/04/07 08:25:05;;;;;;;;;;;18.60;99.90;;;18.75;55.39;100330.03;5078437;28;19954;-82
2024/04/07 08:27:37;;;;;;;;;;;18.60;99.90;;;18.79;55.59;100319.50;5059998;28;19925;-82
2024/04/07 08:30:04;;;;;;;;;;;18.70;99.90;;;18.81;55.10;100308.41;5059775;28;19924;-82
2024/04/07 08:32:31;;;;;;;;;;;18.70;99.90;;;18.84;56.59;100311.41;5079647;28;20409;-82
2024/04/07 08:34:58;;;;;;;;;;;18.80;99.90;;;18.90;56.48;100315.72;5080626;28;19975;-82
2024/04/07 08:37:25;;;;;;;;;;;18.90;99.90;;;18.93;56.10;100301.66;5080793;28;19936;-82
2024/04/07 08:39:52;;;;;;;;;;;18.90;99.90;;;19.04;55.67;100308.69;5047166;28;19947;-82
2024/04/07 08:42:21;;;;;;;;;;;19.10;99.90;;;19.10;54.09;100316.78;5081441;28;19978;-82
2024/04/07 08:44:50;;;;;;;;;;;19.10;99.90;;;19.13;53.27;100313.53;5081961;28;19928;-82
2024/04/07 08:47:19;;;;;;;;;;;19.20;99.90;;;19.17;53.18;100314.63;5080318;28;19925;-82
2024/04/07 08:49:52;;;;;;;;;;;19.20;99.90;;;19.23;53.90;100322.47;5079799;28;19925;-82
2024/04/07 08:52:19;;;;;;;;;;;19.30;99.90;;;19.29;54.32;100331.38;5080499;28;20035;-82
2024/04/07 08:54:47;;;;;;;;;;;19.40;99.90;;;19.31;54.16;100334.63;5030651;28;19924;-82
2024/04/07 08:57:14;;;;;;;;;;;19.40;99.90;;;19.40;54.13;100329.47;5080988;28;19924;-82
2024/04/07 08:59:43;;;;;;;;;;;19.50;99.90;;;19.35;51.93;100338.41;5081858;28;19924;-82
2024/04/07 09:02:13;;;;;;;;;;;19.50;99.90;;;19.44;53.17;100328.66;5081256;28;20284;-82
2024/04/07 09:04:40;;;;;;;;;;;19.60;99.90;;;19.57;53.15;100330.00;5079650;28;19925;-82
2024/04/07 09:07:07;;;;;;;;;;;19.70;99.90;;;19.64;53.73;100330.53;5081110;28;19932;-82
2024/04/07 09:09:36;;;;;;;;;;;19.80;99.90;;;19.73;52.84;100331.59;5079926;28;20005;-82
2024/04/07 09:12:08;;;;;;;;;;;19.90;99.90;;;19.89;53.65;100324.22;5078817;28;19925;-82
2024/04/07 09:14:36;;;;;;;;;;;20.00;99.90;;;19.99;51.36;100326.06;5078496;28;19968;-82
2024/04/07 09:17:03;;;;;;;;;;;20.20;99.90;;;20.06;52.09;100324.69;5081058;28;20019;-84
2024/04/07 09:19:33;;;;;;;;;;;20.20;99.90;;;20.06;49.86;100322.00;5080540;28;19925;-84
2024/04/07 09:22:00;;;;;;;;;;;20.30;99.90;;;20.11;49.78;100323.88;5083122;28;19928;-84
2024/04/07 09:24:40;;;;;;;;;;;20.30;99.90;;;19.98;48.35;100325.28;5075607;28;19924;-85
2024/04/07 09:27:09;;;;;;;;;;;20.20;99.90;;;19.91;47.74;100319.34;5075970;28;20391;-86
2024/04/07 09:29:42;;;;;;;;;;;20.10;99.90;;;19.98;49.79;100325.28;5075191;28;19977;-86
2024/04/07 09:32:11;;;;;;;;;;;20.10;99.90;;;20.10;49.87;100327.66;5059114;28;20360;-85
2024/04/07 09:34:39;;;;;;;;;;;20.20;99.90;;;20.05;47.84;100323.06;5075337;28;19924;-86
2024/04/07 09:37:06;;;;;;;;;;;20.20;99.20;;;20.01;45.43;100319.31;5075982;28;19974;-86
2024/04/07 09:39:33;;;;;;;;;;;20.20;94.60;;;20.08;46.47;100329.03;5075368;28;19925;-86
2024/04/07 09:42:00;;;;;;;;;;;20.20;96.50;;;20.16;45.71;100318.44;5077383;28;20337;-84
2024/04/07 09:44:34;;;;;;;;;;;20.30;95.00;;;20.23;46.80;100326.25;5062686;28;19998;-84
2024/04/07 09:47:06;;;;;;;;;;;20.40;96.80;;;20.29;46.71;100320.50;5079510;28;19931;-86
2024/04/07 09:49:40;;;;;;;;;;;20.50;95.70;;;20.44;46.19;100332.34;5076316;28;20344;-86
2024/04/07 09:52:08;;;;;;;;;;;20.60;95.40;;;20.55;45.86;100321.22;5075930;28;20007;-87
2024/04/07 09:54:40;;;;;;;;;;;20.70;94.00;;;20.60;46.33;100319.56;5074642;28;19924;-87
2024/04/07 09:57:09;;;;;;;;;;;20.80;94.70;;;20.54;45.25;100319.56;5042457;28;19974;-87
2024/04/07 09:59:38;;;;;;;;;;;20.80;92.20;;;20.45;43.89;100323.97;5081325;28;19924;-84
2024/04/07 10:02:05;;;;;;;;;;;20.60;89.30;;;20.45;45.97;100323.97;5088204;28;19948;-84
2024/04/07 10:04:38;;;;;;;;;;;20.70;93.10;;;20.48;46.35;100328.03;5070527;28;19925;-84
2024/04/07 10:07:07;;;;;;;;;;;20.60;93.50;;;20.39;43.63;100311.50;5055889;28;19924;-84
2024/04/07 10:09:43;;;;;;;;;;;20.60;88.80;;;20.26;44.16;100328.41;5088797;28;20391;-84
2024/04/07 10:12:09;;;;;;;;;;;20.50;89.50;;;20.28;45.72;100326.22;5082991;28;20414;-84
2024/04/07 10:14:39;;;;;;;;;;;20.40;91.20;;;20.37;46.08;100327.25;5086785;28;19973;-84
2024/04/07 10:17:11;;;;;;;;;;;20.50;92.60;;;20.37;45.31;100329.97;5052648;28;19971;-84
2024/04/07 10:19:42;;;;;;;;;;;20.50;91.00;;;20.39;45.44;100329.66;5087736;28;19956;-84
2024/04/07 10:22:13;;;;;;;;;;;20.50;90.50;;;20.38;46.01;100328.06;5086252;28;19973;-84
2024/04/07 10:24:40;;;;;;;;;;;20.50;91.60;;;20.33;45.74;100327.00;5066021;28;19931;-83
2024/04/07 10:27:11;;;;;;;;;;;20.50;91.00;;;20.32;44.85;100328.09;5065090;28;19925;-83
2024/04/07 10:29:43;;;;;;;;;;;20.50;89.50;;;20.36;45.50;100333.75;5064620;28;19925;-84
2024/04/07 10:32:20;;;;;;;;;;;20.40;90.40;;;20.39;46.04;100332.38;5064032;28;19957;-84
2024/04/07 10:35:01;;;;;;;;;;;20.50;91.70;;;20.43;45.42;100325.31;5048110;28;20020;-83
2024/04/07 10:37:31;;;;;;;;;;;20.60;90.80;;;20.43;43.26;100333.44;5047199;28;19925;-84
2024/04/07 10:40:00;;;;;;;;;;;20.50;86.40;;;20.44;43.81;100330.44;5047943;28;20332;-84
2024/04/07 10:42:29;;;;;;;;;;;20.60;87.70;;;20.41;42.49;100325.59;5030505;28;20070;-83
2024/04/07 10:44:55;;;;;;;;;;;20.60;85.30;;;20.42;42.98;100321.78;5030642;28;19925;-84
2024/04/07 10:47:24;;;;;;;;;;;20.60;85.40;;;20.41;44.50;100328.31;5030691;28;19925;-83
2024/04/07 10:49:51;;;;;;;;;;;20.60;87.40;;;20.47;44.15;100324.50;5061495;28;19925;-83
2024/04/07 10:52:26;;;;;;;;;;;20.60;87.50;;;20.55;44.57;100334.75;5061127;28;20506;-84
2024/04/07 10:54:56;;;;;;;;;;;20.70;88.40;;;20.67;43.95;100320.84;5065788;28;19928;-84
2024/04/07 10:57:24;;;;;;;;;;;20.80;87.50;;;20.75;45.40;100322.16;5083487;28;20023;-84
2024/04/07 10:59:52;;;;;;;;;;;20.90;88.70;;;20.83;44.40;100318.84;5083089;28;19925;-84
2024/04/07 11:02:20;;;;;;;;;;;21.00;87.60;;;20.84;44.46;100320.47;5082407;28;19928;-84
2024/04/07 11:04:47;;;;;;;;;;;21.00;87.30;;;20.91;44.00;100323.66;5085797;28;19925;-83
2024/04/07 11:07:15;;;;;;;;;;;21.10;86.30;;;20.97;45.88;100317.09;5084104;28;19925;-83
2024/04/07 11:09:41;;;;;;;;;;;21.10;89.70;;;20.96;44.91;100318.19;5085099;28;19925;-84
2024/04/07 11:12:10;;;;;;;;;;;21.20;87.70;;;20.91;43.33;100326.38;5084741;28;19931;-83
2024/04/07 11:14:39;;;;;;;;;;;21.10;86.00;;;20.92;44.16;100325.28;5085861;28;19955;-84
2024/04/07 11:17:11;;;;;;;;;;;21.10;86.20;;;20.97;43.94;100322.50;5068161;28;19931;-84
2024/04/07 11:19:37;;;;;;;;;;;21.10;86.60;;;20.99;44.10;100327.66;5085338;28;19928;-84
2024/04/07 11:22:05;;;;;;;;;;;21.20;86.40;;;20.98;44.29;100324.13;5085471;28;20345;-84